Résultats - 2009
Les résultats au format pdf
Classement Nom Prénom Temps Sexe Dossard Naissance Catégorie Club vitesse
1 GHOULAM Nabil 01:09:36.17 M 305 1975 se 1 Individuel 13,79
2 BUGEAUD Sébastien 01:10:03.21 M 302 1974 se 2 Mende run and bike 13,70
3 CONNAN Jean-Marc 01:14:02.64 M 276 1965 V1 1 Marvejols cross marathon 12,97
4 SOLIGNAC Olivier 01:14:04.06 M 315 1972 se 3 Eveil Mendois 12,96
5 EZZEHAR Albert 01:14:55.81 M 249 1964 V1 2 Eveil Mendois 12,81
6 BLANCQUET Jean-Luc 01:14:57.84 M 285 1967 V1 3 X sport la canourgue 12,81
7 GAUTHIER Eric 01:15:02.76 M 246 1976 se 4 SALTA BARTAS 12,79
8 SOULIER Emeric 01:15:24.20 M 274 1986 se 5 Eveil Mendois 12,73
9 CAMALET Daniel 01:15:39.51 M 270 1983 se 6 Lozère Sport Nature 12,69
10 ALIX Frédéric 01:15:58.92 M 304 1975 se 7 Marijoulet 12,63
11 JULIEN David 01:16:38.67 M 298 1978 se 8 Ski club terre de Randon 12,53
12 BESSIERE Michel 01:16:53.36 M 289 1981 se 9 Mende run and bike 12,49
13 LAURENS Sébastien 01:17:20.93 M 251 1975 se 10 Eveil Mendois 12,41
14 PRIVAT Nicolas 01:17:27.82 M 291 1969 V1 4 SALTA BARTAS 12,39
15 BONHOMME Philippe 01:20:39.40 M 221 1971 se 11 Les Jonquilles 11,90
16 BONNEFOY André 01:20:57.45 M 233 1948 V3 1 S.N. Pays de St Flour 11,86
17 DELORT Gérard 01:21:01.71 M 296 1947 V3 2 Athlétisme Lozère 11,85
18 GALIBERT Michel 01:21:36.67 M 230 1961 V1 5 Marvejols cross marathon 11,76
19 INIGUEZ José 01:21:40.96 M 287 1976 se 12 Roc de la legue 11,75
20 ARNAL Yves 01:22:03.93 M 306 1964 V1 6 Mende run and bike 11,70
21 LAURANS Philippe 01:22:28.39 M 299 1970 se 13 SALTA BARTAS 11,64
22 CROZAT MARC 01:23:29.28 M 275 1964 V1 7 Marvejols cross marathon 11,50
23 MARTIN William 01:23:38.79 M 297 1971 se 14 Lozère Sport Nature 11,48
24 FEVRE Rodolphe 01:24:04.45 M 309 1969 V1 8 Eveil Mendois 11,42
25 TERRADE Mathias 01:24:12.59 M 227 1977 se 15 Individuel 11,40
26 BORREL Michel 01:24:32.48 M 245 1963 V1 9 SALTA BARTAS 11,36
27 SALVADOR CLAUDE 01:24:43.70 M 279 1963 V1 10 SALTA BARTAS 11,33
28 VIGNAL Josian 01:25:09.28 M 248 1954 V2 1 ASSP Vergèze 11,27
29 GIRALDON Serge 01:25:22.90 M 231 1960 V1 11 Sport Nature St Flour 11,24
30 COMBES Alain 01:25:23.28 M 313 1955 V2 2 Eveil Mendois 11,24
31 BUISSON Yannick 01:26:16.96 M 255 1979 se 16 Mende Run and Bike 11,13
32 MONIER Benjamin 01:26:41.39 M 252 1978 se 17 Lozère Sport Nature 11,07
33 CATALANO Thierry 01:26:41.39 M 225 1972 se 18 M. Trek and Bike 11,07
34 GRAVIL Régis 01:27:20.96 M 250 1969 V1 12 Lozère Sport Nature 10,99
35 BOUTET Franck 01:27:26.15 M 303 1966 V1 13 A.F.L. 10,98
36 DELBOS Jean-François 01:27:55.46 M 247 1969 V1 14 Individuel 10,92
37 TEISSIER Didier 01:28:49.39 M 280 1958 V2 3 Individuel 10,81
38 LAURAIRE Philippe 01:29:04.26 M 267 1967 V1 15 Avenir Foot Lozère 10,78
39 MALET Rémy 01:29:17.06 M 264 1963 V1 16 Individuel 10,75
40 HOEFFLER Guillaume 01:29:44.61 M 294 1976 se 19 Lou Clapas 10,70
41 JULIEN Laurie 01:29:55.07 F 292 1989 se 1 Eveil Mendois 10,68
42 PAUCHET Jérôme 01:29:55.61 M 228 1975 se 20 Sportnaturechante 10,68
43 GASTOUT Thierry 01:29:56.26 M 281 1961 V1 17 Dour Sport 10,67
44 ROZIERE Alain 01:29:56.28 M 310 1953 V2 4 Centre Culturel Severac le chateau 10,67
45 COSTECALDE Yannick 01:31:30.46 M 241 1980 se 21 X sport la canourgue 10,49
46 PRIVAT Bruno 01:32:16.73 M 288 1963 V1 18 Individuel 10,40
47 PERRET Philippe 01:32:17.40 M 284 1964 V1 19 Individuel 10,40
48 SALINAS LUCIEN 01:32:19.64 M 277 1946 V3 3 A.C.A 10,40
49 CUMINAL Yannick 01:32:39.28 M 226 1964 V1 20 Individuel 10,36
50 GOSSE Patrick 01:32:40.03 M 320 1976 se 22 Individuel 10,36
51 VALETTE Jean-Pierre 01:32:41.12 M 317 1961 V1 21 Individuel 10,36
52 OLIVE Sébastien 01:33:20.95 M 234 1984 se 23 Colagne 10,28
53 CLUZEL Francis 01:33:47.32 M 273 1964 V1 22 SALTA BARTAS 10,24
54 GAVALDA Cyrille 01:34:23.78 M 217 1973 se 24 Individuel 10,17
55 LHOMBART Elsa 01:35:02.51 F 257 1977 se 2 Mende orientation 10,10
56 COUDERC Sébastien 01:35:04.01 M 312 1973 se 25 Mende run and bike 10,10
57 TUZET René 01:35:06.40 M 322 1955 V2 5 A.S.P.T.T. 10,09
58 HOLAY Philippe 01:35:17.96 M 243 1950 V2 6 Marvejols cross marathon 10,07
59 BARDOU Jean-Denis 01:35:28.53 M 286 1957 V2 7 Individuel 10,05
60 DELFAU Eliane 01:35:43.42 F 301 1983 se 3 Mende run and bike 10,03
61 NURIT Christian 01:36:08.68 M 278 1957 V2 8 Individuel 9,98
62 CHAUDESAGUES Serge 01:37:01.26 M 323 1968 V1 23 A.S.P.T.T. 9,89
63 STREJAR Christian 01:37:37.40 M 235 1980 se 26 Individuel 9,83
64 SAINT-LEGER Christine 01:38:15.32 F 256 1965 V1 1 Marvejols cross marathon 9,77
65 COUGNEAU Bruno 01:38:43.61 M 269 1951 V2 9 OBJ 9,72
66 BOISSIER Franck 01:38:45.37 M 319 1966 V1 24 SALTA BARTAS 9,72
67 MESNILDREY Yves 01:38:53.84 M 219 1954 V2 10 Individuel 9,71
68 BRUEL Patrick 01:39:15.82 M 253 1972 se 27 Individuel 9,67
69 ITIE Eric 01:39:34.87 M 266 1973 se 28 Individuel 9,64
70 RIBENNES Julien 01:39:48.00 M 308 1974 se 29 Club Alpin Clermont Auvergne 9,62
71 ROCHER Mireille 01:39:55.51 F 229 1967 V1 2 Individuel 9,61
72 ROUQUETTE Christiane 01:39:58.76 F 211 1958 V2 1 Eveil Mendois 9,60
73 COMBETTES Alain 01:40:32.28 M 263 1948 V3 4 Eveil Mendois 9,55
74 SARRUT Régis 01:40:34.09 M 239 1976 se 30 Individuel 9,55
75 MAURIN Catherine 01:40:44.54 F 216 1963 V1 3 Individuel 9,53
76 VIDAL Michel 01:41:30.01 M 213 1949 V3 5 Eveil Mendois 9,46
77 VALETTE Roger 01:42:17.71 M 261 1953 V2 11 Eveil Mendois 9,38
78 CALDAMAISON Marie-Dominique 01:42:36.18 F 232 1967 V1 4 Sport Nature St Flour 9,36
79 PAPAYRE Robert 01:42:54.48 M 218 1956 V2 12 Individuel 9,33
80 DAUPHIN Gérard 01:42:57.09 M 212 1949 V3 6 CSPTT AVIGNON 9,32
81 ENCINAS Pierre 01:44:04.84 M 311 1962 V1 25 Lozère Sport Nature 9,22
82 MICHEL Nicolas 01:45:03.20 M 314 1972 se 31 SALTA BARTAS 9,14
83 CELDA Tony 01:45:19.71 M 259 1977 se 32 Individuel 9,11
84 BONNEFOY Gérard 01:46:04.11 M 318 1962 V1 26 Individuel 9,05
85 HOLAY Isabelle 01:46:13.23 F 242 1964 V1 5 Marvejols cross marathon 9,04
86 LAZIER Pierre 01:46:26.15 M 268 1958 V2 13 Individuel 9,02
87 GRANIER Bernadette 01:46:29.67 F 260 1958 V2 2 Eveil Mendois 9,01
88 BONNAL Marcel 01:48:01.34 M 254 1947 V3 7 Mende Run and Bike 8,89
89 GAILLARD Christian 01:48:12.68 M 237 1985 se 33 Colagne 8,87
90 VIRENQUE René 01:50:42.15 M 293 1948 V3 8 FLORAC 8,67
91 BARET Jean-Paul 01:51:11.12 M 265 1952 V2 14 A.C.A 8,63
92 ALMERAS Betty 01:51:40.84 F 282 1962 V1 6 Individuel 8,60
93 JAFFUEL David 01:51:47.45 M 224 1974 se 34 Individuel 8,59
94 MARESCOT Patrick 01:52:18.46 M 215 1964 V1 27 Individuel 8,55
95 CATALANO Hervé 01:52:37.11 M 316 1974 se 35 Montrodat Trek and Bike 8,52
96 LAPLACE Laurent 01:52:47.00 M 222 1970 se 36 Individuel 8,51
97 RIBES Sandrine 01:53:11.78 F 307 1973 se 4 Mende run and bike 8,48
98 PLANES Michel 01:53:15.61 M 300 1954 V2 15 Individuel 8,48
99 PAVLHAN Thierry 01:53:57.61 M 240 1964 V1 28 ASCEM Montrodat 8,42
100 SAINT JEAN André 01:54:09.78 M 214 1947 V3 9 Eveil Mendois 8,41
101 FERNANDEZ Romain 01:54:42.29 M 236 1984 se 37 Individuel 8,37
102 BERNARD Adrien 01:55:53.21 M 272 1946 V3 10 SALTA BARTAS 8,28
103 DORES Lionel 01:55:56.70 M 258 1952 V2 16 A..C.V.S. 8,28
104 LEFEVRE Cathy 01:55:57.12 F 238 1971 se 5 Eveil Mendois 8,28
105 BREMOND Didier 01:56:55.93 M 223 1973 se 38 Individuel 8,21
106 VIEILLEDENT Michel 01:56:57.17 M 295 1960 V1 29 Marvejols 8,21
107 TUZET Joëlle 01:57:12.00 F 321 1959 V2 3 Individuel 8,19
108 MEYRUELS Jean-Marc 01:58:03.70 M 262 1943 V3 11 Eveil Mendois 8,13
109 HICAUBERT Karine 02:01:08.95 F 283 1968 V1 7 Individuel 7,92
110 DAUDE Paul 02:03:47.42 M 271 1942 V3 12 SALTA BARTAS 7,76
111 GLEIZE Jean-Pierre 02:11:54.89 M 290 1944 V3 13 SALTA BARTAS 7,28
112 CHAUDESAIGUES Aline 02:21:53.32 F 220 1973 se 6 Individuel 6,77
0 BOUDET Pierre Abandon M 244 1948 V3 0 Athlétisme Lozère  

Date de création : 06/09/2009 @ 21:32
Dernière modification : 02/09/2012 @ 21:09
Catégorie : Résultats


Prévisualiser Prévisualiser     Imprimer l'article Imprimer l'article


Présentation

Informations

Résultats

Sites amis
Rieucrossette 2011 série 1
Calendrier
^ Haut ^